sensor_id;sensor_type;location;lat;lon;timestamp;P1;P2;P0
14880;PMS7003;7533;51.278;12.588;2022-08-19T00:00:57;25.60;24.00;15.80
14880;PMS7003;7533;51.278;12.588;2022-08-19T00:06:00;29.00;24.60;15.80
14880;PMS7003;7533;51.278;12.588;2022-08-19T00:11:05;26.80;26.60;17.00
14880;PMS7003;7533;51.278;12.588;2022-08-19T00:16:15;32.80;27.80;17.00
14880;PMS7003;7533;51.278;12.588;2022-08-19T00:21:25;29.20;27.20;17.60
14880;PMS7003;7533;51.278;12.588;2022-08-19T00:26:30;27.20;25.80;16.00
14880;PMS7003;7533;51.278;12.588;2022-08-19T00:31:33;32.20;28.20;15.60
14880;PMS7003;7533;51.278;12.588;2022-08-19T00:36:36;27.80;24.80;16.20
14880;PMS7003;7533;51.278;12.588;2022-08-19T00:41:41;26.20;25.40;15.00
14880;PMS7003;7533;51.278;12.588;2022-08-19T00:46:45;33.80;30.20;18.20
14880;PMS7003;7533;51.278;12.588;2022-08-19T00:51:59;33.40;28.40;16.80
14880;PMS7003;7533;51.278;12.588;2022-08-19T00:57:07;30.00;27.20;17.20
14880;PMS7003;7533;51.278;12.588;2022-08-19T01:02:13;29.00;26.80;17.00
14880;PMS7003;7533;51.278;12.588;2022-08-19T01:07:19;33.40;29.20;17.00
14880;PMS7003;7533;51.278;12.588;2022-08-19T01:12:23;27.80;24.80;16.60
14880;PMS7003;7533;51.278;12.588;2022-08-19T01:17:26;34.60;29.80;19.00
14880;PMS7003;7533;51.278;12.588;2022-08-19T01:22:31;27.40;25.80;17.20
14880;PMS7003;7533;51.278;12.588;2022-08-19T01:27:43;27.00;24.00;15.40
14880;PMS7003;7533;51.278;12.588;2022-08-19T01:32:54;30.40;27.80;17.60
14880;PMS7003;7533;51.278;12.588;2022-08-19T01:37:59;28.60;25.40;16.60
14880;PMS7003;7533;51.278;12.588;2022-08-19T01:43:04;35.80;30.40;18.80
14880;PMS7003;7533;51.278;12.588;2022-08-19T01:48:08;39.00;30.60;18.60
14880;PMS7003;7533;51.278;12.588;2022-08-19T01:53:12;33.00;27.60;19.00
14880;PMS7003;7533;51.278;12.588;2022-08-19T01:58:17;33.20;28.20;17.60
14880;PMS7003;7533;51.278;12.588;2022-08-19T02:03:23;29.40;27.80;16.80
14880;PMS7003;7533;51.278;12.588;2022-08-19T02:08:28;29.80;26.60;17.00
14880;PMS7003;7533;51.278;12.588;2022-08-19T02:13:32;27.00;24.00;15.40
14880;PMS7003;7533;51.278;12.588;2022-08-19T02:18:36;30.00;26.80;15.60
14880;PMS7003;7533;51.278;12.588;2022-08-19T02:23:40;24.40;23.20;14.00
14880;PMS7003;7533;51.278;12.588;2022-08-19T02:28:43;24.00;22.80;15.00
14880;PMS7003;7533;51.278;12.588;2022-08-19T02:33:46;24.00;21.00;13.20
14880;PMS7003;7533;51.278;12.588;2022-08-19T02:38:51;20.60;19.00;13.00
14880;PMS7003;7533;51.278;12.588;2022-08-19T02:43:56;23.40;21.20;12.60
14880;PMS7003;7533;51.278;12.588;2022-08-19T02:49:20;19.00;18.60;12.60
14880;PMS7003;7533;51.278;12.588;2022-08-19T02:54:24;20.80;19.40;12.60
14880;PMS7003;7533;51.278;12.588;2022-08-19T02:59:29;19.40;19.20;12.00
14880;PMS7003;7533;51.278;12.588;2022-08-19T03:04:32;23.40;21.60;14.00
14880;PMS7003;7533;51.278;12.588;2022-08-19T03:09:37;19.80;19.20;12.00
14880;PMS7003;7533;51.278;12.588;2022-08-19T03:14:40;17.80;17.40;12.40
14880;PMS7003;7533;51.278;12.588;2022-08-19T03:19:43;24.60;19.40;12.60
14880;PMS7003;7533;51.278;12.588;2022-08-19T03:24:47;20.80;18.20;13.00
14880;PMS7003;7533;51.278;12.588;2022-08-19T03:29:50;22.40;18.20;12.00
14880;PMS7003;7533;51.278;12.588;2022-08-19T03:34:53;22.20;19.00;13.80
14880;PMS7003;7533;51.278;12.588;2022-08-19T03:39:57;21.40;19.00;13.00
14880;PMS7003;7533;51.278;12.588;2022-08-19T03:45:00;28.80;25.60;14.40
14880;PMS7003;7533;51.278;12.588;2022-08-19T03:50:04;26.60;22.00;14.60
14880;PMS7003;7533;51.278;12.588;2022-08-19T03:55:09;25.80;22.40;14.00
14880;PMS7003;7533;51.278;12.588;2022-08-19T04:00:12;24.80;23.80;15.00
14880;PMS7003;7533;51.278;12.588;2022-08-19T04:05:15;26.80;23.80;13.60
14880;PMS7003;7533;51.278;12.588;2022-08-19T04:10:26;23.00;21.40;14.60
14880;PMS7003;7533;51.278;12.588;2022-08-19T04:15:29;21.40;20.00;13.40
14880;PMS7003;7533;51.278;12.588;2022-08-19T04:20:41;23.40;21.00;13.00
14880;PMS7003;7533;51.278;12.588;2022-08-19T04:25:47;26.00;24.80;16.80
14880;PMS7003;7533;51.278;12.588;2022-08-19T04:30:50;25.60;23.40;16.60
14880;PMS7003;7533;51.278;12.588;2022-08-19T04:35:54;29.00;26.20;15.20
14880;PMS7003;7533;51.278;12.588;2022-08-19T04:41:01;29.20;26.60;16.20
14880;PMS7003;7533;51.278;12.588;2022-08-19T04:46:22;30.00;23.80;15.40
14880;PMS7003;7533;51.278;12.588;2022-08-19T04:51:46;28.00;23.60;15.60
14880;PMS7003;7533;51.278;12.588;2022-08-19T04:56:51;29.60;27.20;17.20
14880;PMS7003;7533;51.278;12.588;2022-08-19T05:01:55;28.75;26.25;16.25
14880;PMS7003;7533;51.278;12.588;2022-08-19T05:06:58;35.20;28.00;17.60
14880;PMS7003;7533;51.278;12.588;2022-08-19T05:12:04;29.60;27.20;18.20
14880;PMS7003;7533;51.278;12.588;2022-08-19T05:17:07;37.40;30.40;18.20
14880;PMS7003;7533;51.278;12.588;2022-08-19T05:22:30;35.00;30.00;19.00
14880;PMS7003;7533;51.278;12.588;2022-08-19T05:27:38;41.00;31.20;19.20
14880;PMS7003;7533;51.278;12.588;2022-08-19T05:32:41;34.40;30.00;18.60
14880;PMS7003;7533;51.278;12.588;2022-08-19T05:37:44;32.00;28.40;19.20
14880;PMS7003;7533;51.278;12.588;2022-08-19T05:42:48;33.40;30.00;18.60
14880;PMS7003;7533;51.278;12.588;2022-08-19T05:47:55;40.60;33.20;19.40
14880;PMS7003;7533;51.278;12.588;2022-08-19T05:52:59;40.00;32.80;20.40
14880;PMS7003;7533;51.278;12.588;2022-08-19T05:58:03;41.40;33.40;21.20
14880;PMS7003;7533;51.278;12.588;2022-08-19T06:03:08;43.40;34.40;21.60
14880;PMS7003;7533;51.278;12.588;2022-08-19T06:08:13;45.20;35.00;21.00
14880;PMS7003;7533;51.278;12.588;2022-08-19T06:13:18;40.40;32.80;20.00
14880;PMS7003;7533;51.278;12.588;2022-08-19T06:18:21;42.80;33.40;20.20
14880;PMS7003;7533;51.278;12.588;2022-08-19T06:23:24;42.00;35.60;21.00
14880;PMS7003;7533;51.278;12.588;2022-08-19T06:28:28;37.60;31.00;18.20
14880;PMS7003;7533;51.278;12.588;2022-08-19T06:33:31;37.80;31.00;19.40
14880;PMS7003;7533;51.278;12.588;2022-08-19T06:38:34;41.40;34.00;20.20
14880;PMS7003;7533;51.278;12.588;2022-08-19T06:43:38;39.80;33.00;21.00
14880;PMS7003;7533;51.278;12.588;2022-08-19T06:48:42;42.20;33.60;21.00
14880;PMS7003;7533;51.278;12.588;2022-08-19T06:53:46;47.20;35.80;22.00
14880;PMS7003;7533;51.278;12.588;2022-08-19T06:58:56;46.80;37.00;21.00
14880;PMS7003;7533;51.278;12.588;2022-08-19T07:03:59;44.40;35.20;21.40
14880;PMS7003;7533;51.278;12.588;2022-08-19T07:09:03;46.40;36.60;21.20
14880;PMS7003;7533;51.278;12.588;2022-08-19T07:14:08;47.20;36.80;22.40
14880;PMS7003;7533;51.278;12.588;2022-08-19T07:19:20;45.40;36.60;22.00
14880;PMS7003;7533;51.278;12.588;2022-08-19T07:24:24;46.00;36.40;21.20
14880;PMS7003;7533;51.278;12.588;2022-08-19T07:29:35;48.20;37.20;22.80
14880;PMS7003;7533;51.278;12.588;2022-08-19T07:34:39;46.00;37.40;22.80
14880;PMS7003;7533;51.278;12.588;2022-08-19T07:39:43;54.40;40.60;22.20
14880;PMS7003;7533;51.278;12.588;2022-08-19T07:44:47;46.80;39.20;23.00
14880;PMS7003;7533;51.278;12.588;2022-08-19T07:49:51;50.20;38.20;22.20
14880;PMS7003;7533;51.278;12.588;2022-08-19T07:54:54;44.00;35.00;21.40
14880;PMS7003;7533;51.278;12.588;2022-08-19T07:59:58;46.20;36.40;22.20
14880;PMS7003;7533;51.278;12.588;2022-08-19T08:05:01;45.60;35.20;22.00
14880;PMS7003;7533;51.278;12.588;2022-08-19T08:10:22;45.60;36.40;22.00
14880;PMS7003;7533;51.278;12.588;2022-08-19T08:15:27;45.00;33.20;21.00
14880;PMS7003;7533;51.278;12.588;2022-08-19T08:20:30;45.60;35.00;21.00
14880;PMS7003;7533;51.278;12.588;2022-08-19T08:25:33;46.20;35.40;21.60
14880;PMS7003;7533;51.278;12.588;2022-08-19T08:30:39;41.00;34.00;21.00
14880;PMS7003;7533;51.278;12.588;2022-08-19T08:35:45;45.00;35.60;21.00
14880;PMS7003;7533;51.278;12.588;2022-08-19T08:40:49;43.60;35.20;22.00
14880;PMS7003;7533;51.278;12.588;2022-08-19T08:45:59;44.60;35.00;22.00
14880;PMS7003;7533;51.278;12.588;2022-08-19T08:51:07;42.40;35.40;20.60
14880;PMS7003;7533;51.278;12.588;2022-08-19T08:56:20;43.80;33.80;22.00
14880;PMS7003;7533;51.278;12.588;2022-08-19T09:01:25;41.40;34.00;20.40
14880;PMS7003;7533;51.278;12.588;2022-08-19T09:06:32;45.40;34.80;21.20
14880;PMS7003;7533;51.278;12.588;2022-08-19T09:11:45;45.40;35.40;21.00
14880;PMS7003;7533;51.278;12.588;2022-08-19T09:16:57;42.40;35.80;21.20
14880;PMS7003;7533;51.278;12.588;2022-08-19T09:22:01;46.60;36.80;21.20
14880;PMS7003;7533;51.278;12.588;2022-08-19T09:27:04;48.60;37.60;22.20
14880;PMS7003;7533;51.278;12.588;2022-08-19T09:32:20;45.40;36.60;22.00
14880;PMS7003;7533;51.278;12.588;2022-08-19T09:37:27;45.40;36.00;21.60
14880;PMS7003;7533;51.278;12.588;2022-08-19T09:42:30;43.40;33.60;21.00
14880;PMS7003;7533;51.278;12.588;2022-08-19T09:47:37;43.00;34.80;22.00
14880;PMS7003;7533;51.278;12.588;2022-08-19T09:52:41;41.40;33.00;20.40
14880;PMS7003;7533;51.278;12.588;2022-08-19T09:58:01;44.00;35.20;22.00
14880;PMS7003;7533;51.278;12.588;2022-08-19T10:03:06;42.20;33.80;21.20
14880;PMS7003;7533;51.278;12.588;2022-08-19T10:08:08;43.40;34.60;21.40
14880;PMS7003;7533;51.278;12.588;2022-08-19T10:13:15;47.20;36.60;22.20
14880;PMS7003;7533;51.278;12.588;2022-08-19T10:18:23;48.00;36.20;20.80
14880;PMS7003;7533;51.278;12.588;2022-08-19T10:23:27;48.80;36.00;21.20
14880;PMS7003;7533;51.278;12.588;2022-08-19T10:28:35;46.20;36.40;21.00
14880;PMS7003;7533;51.278;12.588;2022-08-19T10:33:40;44.80;35.60;20.80
14880;PMS7003;7533;51.278;12.588;2022-08-19T10:38:54;47.40;37.60;20.20
14880;PMS7003;7533;51.278;12.588;2022-08-19T10:44:00;50.60;38.00;21.00
14880;PMS7003;7533;51.278;12.588;2022-08-19T10:49:08;41.60;33.40;19.60
14880;PMS7003;7533;51.278;12.588;2022-08-19T10:54:12;41.80;33.40;19.60
14880;PMS7003;7533;51.278;12.588;2022-08-19T10:59:15;44.00;34.00;20.40
14880;PMS7003;7533;51.278;12.588;2022-08-19T11:04:20;45.20;34.60;20.00
14880;PMS7003;7533;51.278;12.588;2022-08-19T11:09:29;42.00;34.20;19.60
14880;PMS7003;7533;51.278;12.588;2022-08-19T11:14:35;42.20;32.20;20.60
14880;PMS7003;7533;51.278;12.588;2022-08-19T11:19:39;43.20;30.80;18.20
14880;PMS7003;7533;51.278;12.588;2022-08-19T11:24:43;35.40;30.00;18.40
14880;PMS7003;7533;51.278;12.588;2022-08-19T11:29:46;35.80;29.60;18.00
14880;PMS7003;7533;51.278;12.588;2022-08-19T11:34:50;44.20;33.40;18.40
14880;PMS7003;7533;51.278;12.588;2022-08-19T11:39:53;35.20;30.00;17.20
14880;PMS7003;7533;51.278;12.588;2022-08-19T11:44:55;35.60;29.60;18.80
14880;PMS7003;7533;51.278;12.588;2022-08-19T11:50:00;37.40;28.00;17.40
14880;PMS7003;7533;51.278;12.588;2022-08-19T11:55:03;34.00;28.40;16.20
14880;PMS7003;7533;51.278;12.588;2022-08-19T12:00:07;33.60;29.60;17.00
14880;PMS7003;7533;51.278;12.588;2022-08-19T12:05:12;33.80;29.20;16.60
14880;PMS7003;7533;51.278;12.588;2022-08-19T12:10:15;35.20;27.60;16.40
14880;PMS7003;7533;51.278;12.588;2022-08-19T12:15:21;31.50;26.50;15.50
14880;PMS7003;7533;51.278;12.588;2022-08-19T12:20:25;30.60;26.40;15.20
14880;PMS7003;7533;51.278;12.588;2022-08-19T12:25:28;30.80;26.40;16.20
14880;PMS7003;7533;51.278;12.588;2022-08-19T12:30:32;24.25;21.25;15.25
14880;PMS7003;7533;51.278;12.588;2022-08-19T12:35:38;26.00;23.75;15.75
14880;PMS7003;7533;51.278;12.588;2022-08-19T12:40:46;36.60;28.80;16.00
14880;PMS7003;7533;51.278;12.588;2022-08-19T12:45:49;28.40;26.00;14.60
14880;PMS7003;7533;51.278;12.588;2022-08-19T12:50:54;23.00;22.50;13.00
14880;PMS7003;7533;51.278;12.588;2022-08-19T12:55:56;28.80;26.00;15.00
14880;PMS7003;7533;51.278;12.588;2022-08-19T13:01:05;31.40;25.00;15.00
14880;PMS7003;7533;51.278;12.588;2022-08-19T13:06:10;29.20;26.40;15.20
14880;PMS7003;7533;51.278;12.588;2022-08-19T13:11:14;29.20;25.20;16.20
14880;PMS7003;7533;51.278;12.588;2022-08-19T13:16:19;26.40;23.60;14.20
14880;PMS7003;7533;51.278;12.588;2022-08-19T13:21:25;23.25;22.50;14.00
14880;PMS7003;7533;51.278;12.588;2022-08-19T13:26:31;28.20;23.00;15.00
14880;PMS7003;7533;51.278;12.588;2022-08-19T13:31:34;23.50;20.75;14.25
14880;PMS7003;7533;51.278;12.588;2022-08-19T13:37:03;26.25;24.75;13.50
14880;PMS7003;7533;51.278;12.588;2022-08-19T13:42:06;28.60;25.20;14.20
14880;PMS7003;7533;51.278;12.588;2022-08-19T13:47:11;32.40;26.60;16.80
14880;PMS7003;7533;51.278;12.588;2022-08-19T13:52:17;27.40;25.60;17.00
14880;PMS7003;7533;51.278;12.588;2022-08-19T13:57:20;35.60;28.20;16.60
14880;PMS7003;7533;51.278;12.588;2022-08-19T14:02:23;22.50;18.50;13.25
14880;PMS7003;7533;51.278;12.588;2022-08-19T14:07:27;31.80;26.80;17.20
14880;PMS7003;7533;51.278;12.588;2022-08-19T14:12:30;24.60;21.80;14.80
14880;PMS7003;7533;51.278;12.588;2022-08-19T14:17:34;24.20;22.40;14.40
14880;PMS7003;7533;51.278;12.588;2022-08-19T14:22:41;30.20;25.40;15.80
14880;PMS7003;7533;51.278;12.588;2022-08-19T14:27:45;30.80;27.40;17.40
14880;PMS7003;7533;51.278;12.588;2022-08-19T14:32:49;33.20;27.00;16.20
14880;PMS7003;7533;51.278;12.588;2022-08-19T14:37:54;31.60;25.80;15.80
14880;PMS7003;7533;51.278;12.588;2022-08-19T14:43:00;30.40;27.80;17.60
14880;PMS7003;7533;51.278;12.588;2022-08-19T14:48:06;30.80;28.60;17.20
14880;PMS7003;7533;51.278;12.588;2022-08-19T14:53:21;22.50;20.00;13.00
14880;PMS7003;7533;51.278;12.588;2022-08-19T14:58:24;25.20;23.60;13.40
14880;PMS7003;7533;51.278;12.588;2022-08-19T15:03:30;31.20;26.80;16.80
14880;PMS7003;7533;51.278;12.588;2022-08-19T15:08:36;25.40;23.80;15.00
14880;PMS7003;7533;51.278;12.588;2022-08-19T15:13:40;28.80;25.20;16.20
14880;PMS7003;7533;51.278;12.588;2022-08-19T15:18:44;27.40;22.00;15.20
14880;PMS7003;7533;51.278;12.588;2022-08-19T15:23:49;26.00;24.40;15.60
14880;PMS7003;7533;51.278;12.588;2022-08-19T15:28:53;22.50;19.75;11.00
14880;PMS7003;7533;51.278;12.588;2022-08-19T15:33:56;21.25;20.00;10.75
14880;PMS7003;7533;51.278;12.588;2022-08-19T15:39:01;23.00;21.50;12.25
14880;PMS7003;7533;51.278;12.588;2022-08-19T15:44:07;25.75;23.00;12.75
14880;PMS7003;7533;51.278;12.588;2022-08-19T15:49:14;19.75;17.75;11.25
14880;PMS7003;7533;51.278;12.588;2022-08-19T15:54:20;26.50;23.00;12.25
14880;PMS7003;7533;51.278;12.588;2022-08-19T15:59:24;25.75;21.25;12.75
14880;PMS7003;7533;51.278;12.588;2022-08-19T16:04:48;25.00;21.50;13.75
14880;PMS7003;7533;51.278;12.588;2022-08-19T16:10:09;19.75;17.75;12.75
14880;PMS7003;7533;51.278;12.588;2022-08-19T16:15:28;25.25;23.25;13.50
14880;PMS7003;7533;51.278;12.588;2022-08-19T16:20:32;25.75;25.25;14.75
14880;PMS7003;7533;51.278;12.588;2022-08-19T16:25:37;27.00;22.50;13.50
14880;PMS7003;7533;51.278;12.588;2022-08-19T16:30:40;32.40;27.00;13.80
14880;PMS7003;7533;51.278;12.588;2022-08-19T16:35:51;27.00;23.00;14.00
14880;PMS7003;7533;51.278;12.588;2022-08-19T16:41:09;26.40;23.20;14.00
14880;PMS7003;7533;51.278;12.588;2022-08-19T16:46:12;26.50;22.25;12.75
14880;PMS7003;7533;51.278;12.588;2022-08-19T16:51:19;26.60;24.60;16.20
14880;PMS7003;7533;51.278;12.588;2022-08-19T16:56:24;22.60;21.40;12.40
14880;PMS7003;7533;51.278;12.588;2022-08-19T17:01:28;24.25;22.25;12.25
14880;PMS7003;7533;51.278;12.588;2022-08-19T17:06:31;28.25;23.25;13.50
14880;PMS7003;7533;51.278;12.588;2022-08-19T17:11:38;25.25;23.50;12.75
14880;PMS7003;7533;51.278;12.588;2022-08-19T17:16:41;25.00;22.40;13.20
14880;PMS7003;7533;51.278;12.588;2022-08-19T17:21:44;26.60;22.20;14.00
14880;PMS7003;7533;51.278;12.588;2022-08-19T17:26:48;20.25;18.75;12.00
14880;PMS7003;7533;51.278;12.588;2022-08-19T17:31:51;23.50;20.00;12.00
14880;PMS7003;7533;51.278;12.588;2022-08-19T17:36:54;22.60;22.60;13.00
14880;PMS7003;7533;51.278;12.588;2022-08-19T17:41:58;22.00;19.00;13.00
14880;PMS7003;7533;51.278;12.588;2022-08-19T17:47:03;23.50;18.50;12.00
14880;PMS7003;7533;51.278;12.588;2022-08-19T17:52:06;17.25;16.00;9.75
14880;PMS7003;7533;51.278;12.588;2022-08-19T17:57:11;24.60;21.60;14.40
14880;PMS7003;7533;51.278;12.588;2022-08-19T18:02:15;20.00;18.50;12.25
14880;PMS7003;7533;51.278;12.588;2022-08-19T18:07:22;17.00;14.50;9.00
14880;PMS7003;7533;51.278;12.588;2022-08-19T18:12:26;21.00;18.50;11.75
14880;PMS7003;7533;51.278;12.588;2022-08-19T18:17:29;18.75;17.00;11.00
14880;PMS7003;7533;51.278;12.588;2022-08-19T18:22:34;19.25;15.50;10.50
14880;PMS7003;7533;51.278;12.588;2022-08-19T18:27:40;17.75;16.25;11.50
14880;PMS7003;7533;51.278;12.588;2022-08-19T18:32:43;18.50;17.50;10.00
14880;PMS7003;7533;51.278;12.588;2022-08-19T18:37:49;17.50;13.50;8.50
14880;PMS7003;7533;51.278;12.588;2022-08-19T18:42:53;15.25;13.00;8.50
14880;PMS7003;7533;51.278;12.588;2022-08-19T18:48:20;15.75;14.75;8.50
14880;PMS7003;7533;51.278;12.588;2022-08-19T18:53:41;16.75;14.50;10.00
14880;PMS7003;7533;51.278;12.588;2022-08-19T18:58:46;17.00;13.00;9.50
14880;PMS7003;7533;51.278;12.588;2022-08-19T19:03:51;13.50;13.50;9.50
14880;PMS7003;7533;51.278;12.588;2022-08-19T19:08:55;15.75;14.00;9.25
14880;PMS7003;7533;51.278;12.588;2022-08-19T19:14:01;13.00;13.00;7.75
14880;PMS7003;7533;51.278;12.588;2022-08-19T19:19:05;14.25;13.50;9.00
14880;PMS7003;7533;51.278;12.588;2022-08-19T19:24:14;14.75;12.25;8.75
14880;PMS7003;7533;51.278;12.588;2022-08-19T19:29:22;16.00;14.25;9.00
14880;PMS7003;7533;51.278;12.588;2022-08-19T19:34:27;17.75;17.00;10.25
14880;PMS7003;7533;51.278;12.588;2022-08-19T19:39:30;16.50;13.50;9.00
14880;PMS7003;7533;51.278;12.588;2022-08-19T19:44:49;13.00;13.00;8.00
14880;PMS7003;7533;51.278;12.588;2022-08-19T19:49:54;19.50;19.50;10.00
14880;PMS7003;7533;51.278;12.588;2022-08-19T19:55:15;18.50;15.75;10.00
14880;PMS7003;7533;51.278;12.588;2022-08-19T20:00:20;20.00;16.50;12.00
14880;PMS7003;7533;51.278;12.588;2022-08-19T20:05:23;20.50;17.50;10.75
14880;PMS7003;7533;51.278;12.588;2022-08-19T20:10:27;18.75;17.25;10.00
14880;PMS7003;7533;51.278;12.588;2022-08-19T20:15:31;21.60;20.80;11.60
14880;PMS7003;7533;51.278;12.588;2022-08-19T20:20:41;19.40;19.40;12.20
14880;PMS7003;7533;51.278;12.588;2022-08-19T20:25:45;19.80;19.60;12.40
14880;PMS7003;7533;51.278;12.588;2022-08-19T20:30:49;22.40;21.20;12.40
14880;PMS7003;7533;51.278;12.588;2022-08-19T20:35:52;26.60;23.60;13.80
14880;PMS7003;7533;51.278;12.588;2022-08-19T20:40:55;25.00;22.80;13.20
14880;PMS7003;7533;51.278;12.588;2022-08-19T20:45:59;26.40;21.40;13.00
14880;PMS7003;7533;51.278;12.588;2022-08-19T20:51:03;21.80;20.80;13.00
14880;PMS7003;7533;51.278;12.588;2022-08-19T20:56:06;24.00;21.80;13.00
14880;PMS7003;7533;51.278;12.588;2022-08-19T21:01:15;27.80;23.20;13.40
14880;PMS7003;7533;51.278;12.588;2022-08-19T21:06:18;26.80;23.20;14.20
14880;PMS7003;7533;51.278;12.588;2022-08-19T21:11:23;31.40;26.40;14.80
14880;PMS7003;7533;51.278;12.588;2022-08-19T21:16:27;24.20;22.60;13.40
14880;PMS7003;7533;51.278;12.588;2022-08-19T21:21:32;26.20;22.60;14.00
14880;PMS7003;7533;51.278;12.588;2022-08-19T21:26:36;25.60;21.80;12.20
14880;PMS7003;7533;51.278;12.588;2022-08-19T21:31:40;24.20;23.60;14.80
14880;PMS7003;7533;51.278;12.588;2022-08-19T21:36:43;25.00;21.20;12.20
14880;PMS7003;7533;51.278;12.588;2022-08-19T21:41:45;18.50;18.25;11.50
14880;PMS7003;7533;51.278;12.588;2022-08-19T21:46:50;19.20;16.00;11.40
14880;PMS7003;7533;51.278;12.588;2022-08-19T21:51:52;21.50;19.25;12.00
14880;PMS7003;7533;51.278;12.588;2022-08-19T21:56:55;18.75;17.00;10.00
14880;PMS7003;7533;51.278;12.588;2022-08-19T22:01:59;22.50;20.50;11.75
14880;PMS7003;7533;51.278;12.588;2022-08-19T22:07:20;20.75;17.50;11.50
14880;PMS7003;7533;51.278;12.588;2022-08-19T22:12:26;19.50;18.50;12.25
14880;PMS7003;7533;51.278;12.588;2022-08-19T22:17:38;18.50;17.50;10.00
14880;PMS7003;7533;51.278;12.588;2022-08-19T22:22:44;22.80;20.80;12.00
14880;PMS7003;7533;51.278;12.588;2022-08-19T22:27:50;16.50;16.00;10.00
14880;PMS7003;7533;51.278;12.588;2022-08-19T22:32:58;20.00;17.75;11.00
14880;PMS7003;7533;51.278;12.588;2022-08-19T22:38:02;17.25;16.00;9.75
14880;PMS7003;7533;51.278;12.588;2022-08-19T22:43:08;20.50;17.75;11.25
14880;PMS7003;7533;51.278;12.588;2022-08-19T22:48:16;18.00;16.67;10.00
14880;PMS7003;7533;51.278;12.588;2022-08-19T22:53:21;15.75;15.75;9.50
14880;PMS7003;7533;51.278;12.588;2022-08-19T22:58:24;17.25;15.50;10.25
14880;PMS7003;7533;51.278;12.588;2022-08-19T23:03:29;21.00;17.75;9.75
14880;PMS7003;7533;51.278;12.588;2022-08-19T23:08:33;15.50;15.50;9.50
14880;PMS7003;7533;51.278;12.588;2022-08-19T23:13:37;16.50;15.00;10.00
14880;PMS7003;7533;51.278;12.588;2022-08-19T23:18:43;16.00;15.50;10.25
14880;PMS7003;7533;51.278;12.588;2022-08-19T23:23:46;15.75;15.75;10.75
14880;PMS7003;7533;51.278;12.588;2022-08-19T23:28:49;19.25;16.25;10.00
14880;PMS7003;7533;51.278;12.588;2022-08-19T23:34:11;21.50;18.50;10.75
14880;PMS7003;7533;51.278;12.588;2022-08-19T23:39:13;17.25;16.25;10.50
14880;PMS7003;7533;51.278;12.588;2022-08-19T23:44:16;16.50;14.75;10.00
14880;PMS7003;7533;51.278;12.588;2022-08-19T23:49:21;16.25;15.00;8.75
14880;PMS7003;7533;51.278;12.588;2022-08-19T23:54:24;22.00;18.50;10.25
14880;PMS7003;7533;51.278;12.588;2022-08-19T23:59:44;20.25;16.25;10.25
